createdAt,value
2022-10-03T00:02:46.046Z,98641.00
2022-10-03T00:06:56.713Z,98639.00
2022-10-03T00:11:13.779Z,98637.00
2022-10-03T00:15:27.836Z,98642.00
2022-10-03T00:19:38.463Z,98636.00
2022-10-03T00:23:49.028Z,98640.00
2022-10-03T00:28:09.109Z,98641.00
2022-10-03T00:32:22.500Z,98637.00
2022-10-03T00:36:42.217Z,98630.00
2022-10-03T00:41:08.861Z,98639.00
2022-10-03T00:45:39.477Z,98648.00
2022-10-03T00:50:16.072Z,98644.00
2022-10-03T00:54:39.897Z,98637.00
2022-10-03T00:59:04.383Z,98649.00
2022-10-03T01:03:27.241Z,98647.00
2022-10-03T01:07:38.439Z,98654.00
2022-10-03T01:11:49.647Z,98656.00
2022-10-03T01:16:21.814Z,98658.00
2022-10-03T01:20:52.438Z,98660.00
2022-10-03T01:25:00.017Z,98664.00
2022-10-03T01:29:23.089Z,98671.00
2022-10-03T01:33:34.477Z,98657.00
2022-10-03T01:37:39.378Z,98675.00
2022-10-03T01:41:49.908Z,98678.00
2022-10-03T01:46:28.390Z,98684.00
2022-10-03T01:50:45.794Z,98685.00
2022-10-03T01:55:08.767Z,98683.00
2022-10-03T01:59:13.410Z,98692.00
2022-10-03T02:03:30.200Z,98687.00
2022-10-03T02:07:46.892Z,98688.00
2022-10-03T02:12:03.633Z,98704.00
2022-10-03T02:16:17.614Z,98706.00
2022-10-03T02:20:37.652Z,98702.00
2022-10-03T02:24:54.968Z,98700.00
2022-10-03T02:29:14.932Z,98703.00
2022-10-03T02:33:52.266Z,98701.00
2022-10-03T02:38:00.097Z,98691.00
2022-10-03T02:42:25.733Z,98697.00
2022-10-03T02:46:53.649Z,98700.00
2022-10-03T02:51:17.869Z,98699.00
2022-10-03T02:55:31.333Z,98703.00
2022-10-03T02:59:39.563Z,98709.00
2022-10-03T03:04:00.883Z,98722.00
2022-10-03T03:08:08.351Z,98723.00
2022-10-03T03:12:44.671Z,98717.00
2022-10-03T03:17:13.551Z,98721.00
2022-10-03T03:21:36.202Z,98737.00
2022-10-03T03:25:59.331Z,98739.00
2022-10-03T03:30:21.954Z,98738.00
2022-10-03T03:34:48.439Z,98744.00
2022-10-03T03:39:11.590Z,98739.00
2022-10-03T03:43:38.868Z,98744.00
2022-10-03T03:47:55.851Z,98743.00
2022-10-03T03:52:03.631Z,98747.00
2022-10-03T03:56:34.391Z,98756.00
2022-10-03T04:00:54.621Z,98764.00
2022-10-03T04:05:13.974Z,98763.00
2022-10-03T04:09:42.842Z,98758.00
2022-10-03T04:14:07.476Z,98758.00
2022-10-03T04:18:53.001Z,98762.00
2022-10-03T04:23:10.001Z,98759.00
2022-10-03T04:27:29.611Z,98771.00
2022-10-03T04:31:51.192Z,98774.00
2022-10-03T04:36:11.028Z,98782.00
2022-10-03T04:40:30.184Z,98777.00
2022-10-03T04:44:37.644Z,98770.00
2022-10-03T04:48:54.309Z,98765.00
2022-10-03T04:53:19.872Z,98769.00
2022-10-03T04:57:45.367Z,98764.00
2022-10-03T05:02:02.705Z,98757.00
2022-10-03T05:06:27.311Z,98763.00
2022-10-03T05:10:35.408Z,98776.00
2022-10-03T05:14:58.305Z,98770.00
2022-10-03T05:19:19.699Z,98774.00
2022-10-03T05:23:36.370Z,98779.00
2022-10-03T05:27:43.925Z,98768.00
2022-10-03T05:32:00.469Z,98793.00
2022-10-03T05:36:11.490Z,98798.00
2022-10-03T05:40:25.420Z,98807.00
2022-10-03T05:44:39.656Z,98808.00
2022-10-03T05:48:44.621Z,98804.00
2022-10-03T05:53:07.782Z,98800.00
2022-10-03T05:57:29.061Z,98798.00
2022-10-03T06:01:36.888Z,98804.00
2022-10-03T06:06:07.260Z,98801.00
2022-10-03T06:10:33.239Z,98794.00
2022-10-03T06:15:09.858Z,98792.00
2022-10-03T06:19:14.729Z,98793.00
2022-10-03T06:23:46.713Z,98800.00
2022-10-03T06:28:08.310Z,98799.00
2022-10-03T06:32:35.987Z,98810.00
2022-10-03T06:36:43.789Z,98813.00
2022-10-03T06:41:08.124Z,98813.00
2022-10-03T06:45:19.168Z,98822.00
2022-10-03T06:49:41.890Z,98826.00
2022-10-03T06:54:06.504Z,98830.00
2022-10-03T06:58:34.067Z,98840.00
2022-10-03T07:03:01.110Z,98837.00
2022-10-03T07:07:25.333Z,98824.00
2022-10-03T07:11:46.093Z,98838.00
2022-10-03T07:16:14.286Z,98848.00
2022-10-03T07:20:13.065Z,98839.00
2022-10-03T07:24:53.006Z,98846.00
2022-10-03T07:29:15.684Z,98850.00
2022-10-03T07:33:47.053Z,98847.00
2022-10-03T07:38:25.283Z,98853.00
2022-10-03T07:42:33.047Z,98854.00
2022-10-03T07:46:52.268Z,98858.00
2022-10-03T07:51:12.550Z,98856.00
2022-10-03T07:55:36.963Z,98871.00
2022-10-03T08:00:13.354Z,98874.00
2022-10-03T08:04:39.200Z,98872.00
2022-10-03T08:08:52.921Z,98871.00
2022-10-03T08:13:19.113Z,98859.00
2022-10-03T08:17:26.580Z,98884.00
2022-10-03T08:21:35.804Z,98885.00
2022-10-03T08:26:03.470Z,98890.00
2022-10-03T08:30:22.284Z,98886.00
2022-10-03T08:34:55.769Z,98898.00
2022-10-03T08:39:26.231Z,98891.00
2022-10-03T08:43:57.605Z,98886.00
2022-10-03T08:48:18.066Z,98897.00
2022-10-03T08:52:44.040Z,98895.00
2022-10-03T08:57:12.723Z,98892.00
2022-10-03T09:01:34.322Z,98893.00
2022-10-03T09:05:45.003Z,98893.00
2022-10-03T09:10:09.324Z,98893.00
2022-10-03T09:14:30.655Z,98901.00
2022-10-03T09:19:03.552Z,98900.00
2022-10-03T09:23:11.138Z,98905.00
2022-10-03T09:27:35.644Z,98902.00
2022-10-03T09:35:50.385Z,98913.00
2022-10-03T09:40:26.995Z,98911.00
2022-10-03T09:44:52.515Z,98923.00
2022-10-03T09:49:12.430Z,98906.00
2022-10-03T09:53:31.917Z,98909.00
2022-10-03T09:57:54.241Z,98924.00
2022-10-03T10:02:16.884Z,98907.00
2022-10-03T10:06:24.654Z,98927.00
2022-10-03T10:10:31.230Z,98911.00
2022-10-03T10:14:47.969Z,98923.00
2022-10-03T10:19:10.125Z,98921.00
2022-10-03T10:23:29.836Z,98914.00
2022-10-03T10:28:07.748Z,98921.00
2022-10-03T10:32:27.955Z,98909.00
2022-10-03T10:36:42.310Z,98895.00
2022-10-03T10:41:20.208Z,98895.00
2022-10-03T10:45:35.388Z,98895.00
2022-10-03T10:50:13.446Z,98894.00
2022-10-03T10:54:30.240Z,98901.00
2022-10-03T10:58:50.144Z,98905.00
2022-10-03T11:03:10.088Z,98904.00
2022-10-03T11:07:50.699Z,98903.00
2022-10-03T11:12:19.957Z,98911.00
2022-10-03T11:16:34.657Z,98898.00
2022-10-03T11:21:08.282Z,98892.00
2022-10-03T11:25:34.071Z,98892.00
2022-10-03T11:29:58.375Z,98885.00
2022-10-03T11:34:36.391Z,98892.00
2022-10-03T11:38:41.325Z,98896.00
2022-10-03T11:43:01.223Z,98889.00
2022-10-03T11:47:17.853Z,98888.00
2022-10-03T11:51:39.262Z,98885.00
2022-10-03T11:55:46.844Z,98889.00
2022-10-03T12:00:00.537Z,98893.00
2022-10-03T12:04:22.011Z,98883.00
2022-10-03T12:08:51.795Z,98892.00
2022-10-03T12:12:55.580Z,98887.00
2022-10-03T12:17:04.836Z,98877.00
2022-10-03T12:21:21.974Z,98883.00
2022-10-03T12:25:25.614Z,98883.00
2022-10-03T12:29:32.076Z,98873.00
2022-10-03T12:33:58.029Z,98875.00
2022-10-03T12:38:22.867Z,98872.00
2022-10-03T12:42:27.909Z,98865.00
2022-10-03T12:46:59.853Z,98873.00
2022-10-03T12:51:04.234Z,98868.00
2022-10-03T12:55:21.349Z,98865.00
2022-10-03T12:59:32.160Z,98864.00
2022-10-03T13:03:43.810Z,98859.00
2022-10-03T13:08:01.633Z,98868.00
2022-10-03T13:12:06.855Z,98861.00
2022-10-03T13:16:21.377Z,98862.00
2022-10-03T13:20:31.936Z,98866.00
2022-10-03T13:24:45.600Z,98863.00
2022-10-03T13:28:58.274Z,98860.00
2022-10-03T13:33:03.121Z,98854.00
2022-10-03T13:37:10.873Z,98864.00
2022-10-03T13:41:32.701Z,98863.00
2022-10-03T13:45:34.551Z,98864.00
2022-10-03T13:49:42.297Z,98856.00
2022-10-03T13:54:00.471Z,98861.00
2022-10-03T13:58:28.511Z,98854.00
2022-10-03T14:02:42.389Z,98849.00
2022-10-03T14:06:56.275Z,98849.00
2022-10-03T14:11:09.672Z,98847.00
2022-10-03T14:15:32.379Z,98855.00
2022-10-03T14:20:10.394Z,98864.00
2022-10-03T14:24:42.394Z,98858.00
2022-10-03T14:28:53.146Z,98852.00
2022-10-03T14:33:11.629Z,98856.00
2022-10-03T14:37:19.626Z,98848.00
2022-10-03T14:41:33.577Z,98846.00
2022-10-03T14:45:38.865Z,98846.00
2022-10-03T14:49:58.452Z,98849.00
2022-10-03T14:53:55.315Z,98862.00
2022-10-03T14:58:10.811Z,98846.00
2022-10-03T15:02:29.942Z,98841.00
2022-10-03T15:06:41.434Z,98845.00
2022-10-03T15:10:44.463Z,98847.00
2022-10-03T15:14:49.563Z,98839.00
2022-10-03T15:19:04.917Z,98835.00
2022-10-03T15:23:10.126Z,98829.00
2022-10-03T15:27:14.985Z,98827.00
2022-10-03T15:31:22.868Z,98827.00
2022-10-03T15:35:27.345Z,98828.00
2022-10-03T15:39:32.494Z,98824.00
2022-10-03T15:44:12.271Z,98822.00
2022-10-03T15:48:17.210Z,98819.00
2022-10-03T15:52:25.106Z,98823.00
2022-10-03T15:56:30.973Z,98817.00
2022-10-03T16:00:35.566Z,98828.00
2022-10-03T16:04:40.544Z,98821.00
2022-10-03T16:09:10.453Z,98812.00
2022-10-03T16:13:18.747Z,98820.00
2022-10-03T16:17:33.127Z,98810.00
2022-10-03T16:21:51.560Z,98810.00
2022-10-03T16:26:07.516Z,98810.00
2022-10-03T16:30:14.442Z,98801.00
2022-10-03T16:34:18.335Z,98808.00
2022-10-03T16:38:26.448Z,98809.00
2022-10-03T16:42:39.851Z,98802.00
2022-10-03T16:46:44.764Z,98801.00
2022-10-03T16:50:52.376Z,98795.00
2022-10-03T16:55:02.318Z,98780.00
2022-10-03T16:59:15.646Z,98786.00
2022-10-03T17:03:23.184Z,98785.00
2022-10-03T17:07:31.326Z,98780.00
2022-10-03T17:11:36.469Z,98772.00
2022-10-03T17:15:48.180Z,98784.00
2022-10-03T17:20:03.813Z,98779.00
2022-10-03T17:24:15.164Z,98777.00
2022-10-03T17:28:23.391Z,98777.00
2022-10-03T17:32:40.075Z,98785.00
2022-10-03T17:37:14.356Z,98778.00
2022-10-03T17:41:25.271Z,98770.00
2022-10-03T17:45:33.325Z,98774.00
2022-10-03T17:49:59.677Z,98777.00
2022-10-03T17:54:05.167Z,98763.00
2022-10-03T17:58:18.513Z,98768.00
2022-10-03T18:02:22.670Z,98775.00
2022-10-03T18:06:35.531Z,98776.00
2022-10-03T18:10:42.088Z,98769.00
2022-10-03T18:14:56.417Z,98774.00
2022-10-03T18:19:25.529Z,98770.00
2022-10-03T18:23:55.320Z,98776.00
2022-10-03T18:28:20.318Z,98778.00
2022-10-03T18:32:24.116Z,98773.00
2022-10-03T18:36:28.993Z,98772.00
2022-10-03T18:40:36.993Z,98766.00
2022-10-03T18:44:41.783Z,98768.00
2022-10-03T18:49:03.083Z,98772.00
2022-10-03T18:52:59.410Z,98762.00
2022-10-03T18:57:10.264Z,98760.00
2022-10-03T19:01:18.662Z,98774.00
2022-10-03T19:05:48.063Z,98769.00
2022-10-03T19:10:04.906Z,98764.00
2022-10-03T19:14:24.703Z,98764.00
2022-10-03T19:18:31.938Z,98754.00
2022-10-03T19:22:39.949Z,98756.00
2022-10-03T19:26:47.723Z,98761.00
2022-10-03T19:31:05.000Z,98761.00
2022-10-03T19:35:09.032Z,98760.00
2022-10-03T19:39:16.606Z,98758.00
2022-10-03T19:43:31.756Z,98751.00
2022-10-03T19:47:40.575Z,98748.00
2022-10-03T19:51:44.023Z,98746.00
2022-10-03T19:55:54.173Z,98748.00
2022-10-03T20:00:00.213Z,98743.00
2022-10-03T20:04:03.199Z,98738.00
2022-10-03T20:08:22.821Z,98742.00
2022-10-03T20:12:28.962Z,98767.00
2022-10-03T20:16:35.623Z,98735.00
2022-10-03T20:20:37.832Z,98733.00
2022-10-03T20:24:45.290Z,98730.00
2022-10-03T20:28:57.001Z,98637.00
2022-10-03T20:32:59.619Z,98738.00
2022-10-03T20:37:23.565Z,98732.00
2022-10-03T20:41:59.071Z,98741.00
2022-10-03T20:46:18.294Z,98735.00
2022-10-03T20:50:26.655Z,98740.00
2022-10-03T20:54:36.955Z,98746.00
2022-10-03T20:58:47.950Z,98737.00
2022-10-03T21:02:54.302Z,98732.00
2022-10-03T21:07:05.546Z,98727.00
2022-10-03T21:11:23.685Z,98721.00
2022-10-03T21:15:47.098Z,98721.00
2022-10-03T21:20:00.700Z,98726.00
2022-10-03T21:24:17.348Z,98725.00
2022-10-03T21:28:31.660Z,98719.00
2022-10-03T21:32:53.420Z,98709.00
2022-10-03T21:37:04.822Z,98716.00
2022-10-03T21:41:22.493Z,98728.00
2022-10-03T21:45:51.914Z,98711.00
2022-10-03T21:50:06.284Z,98715.00
2022-10-03T21:54:27.768Z,98610.00
2022-10-03T21:58:33.209Z,98720.00
2022-10-03T22:02:41.503Z,98714.00
2022-10-03T22:07:04.989Z,98710.00
2022-10-03T22:11:30.994Z,98704.00
2022-10-03T22:16:10.949Z,98704.00
2022-10-03T22:20:22.775Z,98687.00
2022-10-03T22:24:27.447Z,98678.00
2022-10-03T22:28:35.765Z,98672.00
2022-10-03T22:32:49.819Z,98667.00
2022-10-03T22:36:50.988Z,98657.00
2022-10-03T22:40:54.566Z,98656.00
2022-10-03T22:44:57.003Z,98651.00
2022-10-03T22:49:08.138Z,98657.00
2022-10-03T22:53:13.143Z,98656.00
2022-10-03T22:57:15.013Z,98651.00
2022-10-03T23:01:16.892Z,98650.00
2022-10-03T23:05:26.134Z,98647.00
2022-10-03T23:09:40.206Z,98642.00
2022-10-03T23:13:43.356Z,98622.00
2022-10-03T23:17:54.586Z,98634.00
2022-10-03T23:21:57.861Z,98633.00
2022-10-03T23:26:17.763Z,98629.00
2022-10-03T23:30:25.243Z,98633.00
2022-10-03T23:34:35.864Z,98621.00
2022-10-03T23:38:40.623Z,98631.00
2022-10-03T23:42:43.979Z,98621.00
2022-10-03T23:46:45.909Z,98623.00
2022-10-03T23:50:50.710Z,98634.00
2022-10-03T23:54:55.171Z,98636.00
2022-10-03T23:58:59.799Z,98615.00
